Données. Loja

Actualisé: lundi, 2 février 2015 02:32 (heure officielle)
Ind. climatologique: 5582A -  Altitude (m): 585
Latitude37° 9' 41'' N - Longitude4° 9' 10'' O -  PositionVoir localisation
MunicipioLoja (Granada) - Ver predicción
Registros - de
Fecha y hora oficial

 

Temp. (°C)

 

Vit. vent (km/h)

 

Dir. vent

 

Rafale (km/h)

 

Dir. rafale

 

Prec. (mm)

 

Pression (hPa)

 

Tend. (hPa)

 

Humidité (%)

 

02/02/2015 02:00 2.9 4 8-OuestOuest 15 7-Sud-OuestSud-Ouest 0.0 948.5 -0.4 56
02/02/2015 01:00 4.4 4 8-OuestOuest 22 8-OuestOuest 0.0 948.4 -0.3 51
02/02/2015 00:00 4.0 2 7-Sud-OuestSud-Ouest 16 8-OuestOuest 0.0 948.9 0.2 51
01/02/2015 23:00 5.2 3 8-OuestOuest 14 8-OuestOuest 0.0 948.9 0.4 45
01/02/2015 22:00 6.0 5 8-OuestOuest 24 8-OuestOuest 0.0 948.7 0.8 41
01/02/2015 21:00 6.3 7 8-OuestOuest 31 8-OuestOuest 0.0 948.7 1.1 40
01/02/2015 20:00 6.4 10 8-OuestOuest 23 8-OuestOuest 0.0 948.5 0.8 38
01/02/2015 19:00 6.5 7 8-OuestOuest 29 7-Sud-OuestSud-Ouest 0.0 947.9 0.2 38
01/02/2015 18:00 7.2 7 8-OuestOuest 30 8-OuestOuest 0.0 947.6 -0.2 39
01/02/2015 17:00 6.5 8 8-OuestOuest 29 8-OuestOuest 0.0 947.7 -0.7 45
01/02/2015 16:00 6.3 10 8-OuestOuest 35 8-OuestOuest 0.0 947.7 -0.9 45
01/02/2015 15:00 6.9 12 8-OuestOuest 34 8-OuestOuest 0.0 947.8 -1.0 44
01/02/2015 14:00 5.7 7 8-OuestOuest 22 7-Sud-OuestSud-Ouest 0.0 948.4 -0.2 48
01/02/2015 13:00 5.3 4 8-OuestOuest 23 9-Nord-OuestNord-Ouest 0.0 948.6 0.8 51
01/02/2015 12:00 4.9 6 8-OuestOuest 25 8-OuestOuest 0.0 948.8 1.6 52
01/02/2015 11:00 4.1 5 7-Sud-OuestSud-Ouest 23 8-OuestOuest 0.0 948.6 2.5 56
01/02/2015 10:00 2.3 5 8-OuestOuest 21 8-OuestOuest 0.0 947.8 2.7 62
01/02/2015 09:00 1.4 7 7-Sud-OuestSud-Ouest 23 8-OuestOuest 0.0 947.2 2.5 67
01/02/2015 08:00 1.0 7 8-OuestOuest 32 8-OuestOuest 0.0 946.1 1.7 67
01/02/2015 07:00 1.8 10 8-OuestOuest 32 8-OuestOuest 0.0 945.1 1.0 65
01/02/2015 06:00 2.2 5 8-OuestOuest 26 8-OuestOuest 0.0 944.7 0.7 67
01/02/2015 05:00 2.7 8 8-OuestOuest 37 8-OuestOuest 0.0 944.4 0.6 65
01/02/2015 04:00 3.1 9 8-OuestOuest 41 8-OuestOuest 0.0 944.1 0.5 64
01/02/2015 03:00 3.5 11 8-OuestOuest 38 8-OuestOuest 0.0 944.0 1.2 63
First Page First Page First Page Last Page
Lineas por página
Página   de  
Partager:  
En esta página podrá acceder, en forma gráfica y en tabla, a las observaciones horarias de las últimas 24 horas, así como a los valores extremos y acumulados desde las 00 horas del día hasta la hora de actualización indicada, obtenidos en la red de estaciones de AEMET. También podrá acceder a los resúmenes diarios de estas estaciones en los últimos 7 días.

En el mapa aparecen estaciones con valor númerico y otras representadas por un punto. En las primeras, al pasar el ratón, aparece un desplegable con la información completa de la estación. Las estaciones representadas por un punto son estaciones de la red climatológica, con transmisión de datos superior a la hora, por lo que al seleccionarlas pueden no aparecer los últimos datos.

Los datos presentados han sido únicamente sometidos a controles automáticos de calidad en tiempo real, por lo que no puede garantizarse la ausencia de errores.
Toute utilisation et reproduction de l'information est autorisé sous réserve de mentionner AEMETen tant qu'auteur de celle-ci